Walla Walla, Washington
Current Conditions -  °F | °C
As of 8:53 PM on Tuesday 25 Nov 2014 (Local Time) from KALW Reporting Station
Moderate Fog Moderate Fog  
Wind Chill: 38°   Ceiling: 100
Heat Index: 42°   Visibility: 0mi
Dew Point: 41°   Wind: 6mph
Humidity: 96%   Direction: 160°SSE
Pressure: 30.2"   Gusts: NA
Location:  46.07°N, 118.34°W
Report Text: KALW 260453Z AUTO 16005KT M1/4SM R20/1000V1200FT FG VV001 06/05 A3020 RMK AO2 SLP229 T00560050
Loading
Personal Weather Stations






























Interactive Weather Map New forecast layout! Learn more

10-Day Weather Forecast

Advertisements
Track Severe Weather on mobile